Accueil
METAR-TAF:

METAR-TAF

Aéroports :

Reus, Espagne

Aéroport de Reus

latitude: 41-09N, longitude: 001-10E, altitude: 71 m

Observation

Le bulletin a été fait il y a 24 minutes, à 06:30 UTC
Vent 1 kt de direction variable
Température 13°C
Humidité 82%
Pression 1018 hPa
Visibilité 10 km ou plus
pas de nuages en-dessous de 1500 mètres et pas de cumulonimbus.

METAR: LERS 220630Z VRB01KT CAVOK 13/10 Q1018

Heure: 08:54 (06:54 UTC)

Prévision

Le bulletin a été fait il y a 4 heures et 54 minutes, à 02:00 UTC
Prévision valable du 22 à 03 UTC au 23 à 03 UTC
Vent 3 kt de direction variable
Visibilité 10 km ou plus
Quelques nuages à une hauteur de 4000 ft
Temporairement
du 22 à 11 UTC au 22 à 17 UTC
Vent 10 kt de sud

TAF: LERS 220200Z 2203/2303 VRB03KT 9999 FEW040 TX23/2213Z TN11/2206Z TEMPO 2211/2217 18010KT

Observations et prévisions météorologiques de plus de 4000 aéroports (messages METAR et TAF).

Les stations disponibles sont représentées par des disques jaunes et rouges sur la carte.

Passer la souris dessus pour voir le nom de la station.

Cliquer dessus pour voir les observations et prévisions météorologiques.

Pour changer de carte: cliquez sur les boutons verts avec une croix noire pour zoomer, sur le bouton vert avec un tiret pour effectuer un zoom arrière, ou sur les flèches vertes pour les cartes adjacentes.


METAR-TAF: